createdAt,value
2017-11-04T00:00:47.370Z,22.02
2017-11-04T00:03:15.820Z,24.37
2017-11-04T00:05:45.284Z,26.35
2017-11-04T00:08:12.004Z,25.02
2017-11-04T00:10:38.927Z,23.25
2017-11-04T00:13:06.504Z,22.42
2017-11-04T00:15:35.138Z,26.62
2017-11-04T00:18:01.829Z,21.45
2017-11-04T00:20:29.106Z,22.02
2017-11-04T00:22:55.794Z,27.52
2017-11-04T00:25:22.508Z,26.05
2017-11-04T00:27:49.191Z,25.62
2017-11-04T00:30:15.906Z,22.77
2017-11-04T00:32:42.587Z,23.15
2017-11-04T00:35:09.287Z,24.92
2017-11-04T00:37:35.975Z,24.45
2017-11-04T00:40:02.685Z,24.02
2017-11-04T00:42:29.432Z,26.17
2017-11-04T00:44:56.149Z,22.65
2017-11-04T00:47:23.097Z,20.02
2017-11-04T00:49:49.799Z,26.55
2017-11-04T00:52:16.484Z,30.42
2017-11-04T00:54:43.781Z,24.85
2017-11-04T00:57:10.482Z,26.08
2017-11-04T00:59:38.555Z,23.87
2017-11-04T01:02:05.239Z,25.92
2017-11-04T01:04:33.300Z,26.00
2017-11-04T01:07:00.943Z,27.30
2017-11-04T01:09:30.279Z,25.12
2017-11-04T01:11:58.903Z,27.42
2017-11-04T01:14:25.933Z,24.90
2017-11-04T01:16:53.531Z,27.70
2017-11-04T01:19:22.037Z,25.30
2017-11-04T01:21:49.785Z,23.90
2017-11-04T01:24:16.925Z,26.37
2017-11-04T01:26:43.866Z,24.80
2017-11-04T01:29:11.196Z,23.38
2017-11-04T01:31:38.607Z,24.95
2017-11-04T01:34:06.668Z,22.35
2017-11-04T01:36:34.295Z,26.98
2017-11-04T01:39:02.272Z,26.27
2017-11-04T01:41:29.407Z,25.25
2017-11-04T01:43:57.256Z,27.27
2017-11-04T01:46:24.036Z,25.98
2017-11-04T01:48:50.772Z,26.08
2017-11-04T01:51:17.711Z,24.67
2017-11-04T01:53:45.732Z,29.40
2017-11-04T01:56:13.910Z,28.75
2017-11-04T01:58:40.850Z,29.10
2017-11-04T02:01:07.567Z,24.90
2017-11-04T02:03:34.444Z,28.12
2017-11-04T02:06:02.136Z,25.25
2017-11-04T02:08:29.562Z,26.23
2017-11-04T02:10:56.635Z,32.40
2017-11-04T02:13:23.794Z,28.67
2017-11-04T02:15:52.348Z,32.65
2017-11-04T02:18:19.390Z,28.92
2017-11-04T02:20:46.458Z,27.00
2017-11-04T02:23:13.156Z,26.65
2017-11-04T02:25:40.684Z,27.77
2017-11-04T02:28:07.422Z,31.33
2017-11-04T02:30:35.097Z,30.35
2017-11-04T02:33:01.796Z,35.55
2017-11-04T02:35:28.484Z,28.73
2017-11-04T02:37:56.331Z,32.25
2017-11-04T02:40:24.112Z,31.55
2017-11-04T02:42:50.800Z,27.45
2017-11-04T02:45:17.760Z,26.98
2017-11-04T02:47:44.905Z,32.67
2017-11-04T02:52:44.789Z,36.20
2017-11-04T02:55:12.179Z,32.08
2017-11-04T02:57:39.848Z,33.28
2017-11-04T03:00:08.059Z,39.35
2017-11-04T03:02:35.238Z,37.65
2017-11-04T03:05:03.653Z,33.33
2017-11-04T03:07:34.940Z,33.75
2017-11-04T03:10:04.504Z,33.75
2017-11-04T03:15:27.324Z,35.42
2017-11-04T03:17:54.412Z,34.30
2017-11-04T03:20:22.107Z,35.15
2017-11-04T03:22:49.188Z,31.87
2017-11-04T03:25:17.271Z,39.88
2017-11-04T03:27:44.804Z,39.45
2017-11-04T03:30:12.050Z,32.85
2017-11-04T03:32:39.150Z,33.38
2017-11-04T03:35:07.547Z,39.13
2017-11-04T03:37:37.504Z,42.67
2017-11-04T03:40:05.835Z,42.17
2017-11-04T03:42:34.571Z,44.17
2017-11-04T03:45:02.044Z,40.42
2017-11-04T03:47:29.353Z,36.50
2017-11-04T03:49:57.756Z,38.78
2017-11-04T03:52:25.081Z,37.78
2017-11-04T03:54:52.993Z,38.00
2017-11-04T03:57:21.038Z,36.28
2017-11-04T03:59:48.767Z,40.70
2017-11-04T04:02:16.745Z,34.63
2017-11-04T04:04:43.584Z,33.50
2017-11-04T04:07:10.375Z,33.35
2017-11-04T04:09:38.480Z,36.90
2017-11-04T04:12:06.943Z,34.10
2017-11-04T04:14:38.620Z,34.10
2017-11-04T04:17:05.471Z,40.80
2017-11-04T04:19:32.503Z,37.28
2017-11-04T04:22:00.907Z,35.25
2017-11-04T04:24:29.315Z,34.67
2017-11-04T04:26:56.923Z,36.72
2017-11-04T04:29:23.776Z,33.75
2017-11-04T04:31:50.548Z,37.38
2017-11-04T04:34:17.330Z,37.75
2017-11-04T04:36:44.792Z,33.67
2017-11-04T04:39:11.712Z,33.60
2017-11-04T04:41:38.968Z,42.38
2017-11-04T04:44:06.938Z,40.67
2017-11-04T04:46:34.040Z,33.63
2017-11-04T04:49:00.805Z,37.05
2017-11-04T04:51:27.607Z,34.13
2017-11-04T04:53:55.075Z,36.40
2017-11-04T04:56:22.511Z,32.60
2017-11-04T04:58:50.481Z,37.55
2017-11-04T05:01:17.231Z,34.20
2017-11-04T05:03:44.972Z,34.20
2017-11-04T05:06:12.014Z,32.97
2017-11-04T05:08:38.836Z,29.40
2017-11-04T05:11:05.623Z,31.15
2017-11-04T05:13:32.387Z,31.30
2017-11-04T05:16:00.065Z,33.08
2017-11-04T05:18:27.044Z,31.25
2017-11-04T05:20:54.340Z,30.95
2017-11-04T05:23:21.438Z,35.17
2017-11-04T05:25:48.194Z,32.03
2017-11-04T05:28:16.727Z,41.72
2017-11-04T05:30:44.434Z,33.83
2017-11-04T05:33:11.607Z,38.08
2017-11-04T05:35:39.011Z,35.35
2017-11-04T05:38:07.570Z,39.03
2017-11-04T05:40:36.103Z,35.15
2017-11-04T05:43:03.597Z,30.52
2017-11-04T05:45:31.385Z,32.25
2017-11-04T05:48:01.743Z,33.35
2017-11-04T05:50:28.547Z,33.45
2017-11-04T05:53:00.156Z,29.85
2017-11-04T05:55:26.941Z,28.65
2017-11-04T05:57:54.895Z,32.95
2017-11-04T06:02:53.928Z,32.53
2017-11-04T06:07:55.339Z,31.75
2017-11-04T06:10:24.304Z,33.78
2017-11-04T06:12:51.126Z,35.05
2017-11-04T06:15:19.953Z,38.13
2017-11-04T06:17:47.329Z,42.78
2017-11-04T06:20:15.414Z,34.17
2017-11-04T06:22:43.247Z,34.60
2017-11-04T06:25:10.435Z,30.52
2017-11-04T06:27:37.921Z,35.30
2017-11-04T06:30:05.680Z,35.75
2017-11-04T06:32:32.963Z,32.03
2017-11-04T06:37:32.085Z,32.40
2017-11-04T06:40:02.972Z,29.25
2017-11-04T06:42:29.787Z,35.95
2017-11-04T06:44:56.565Z,35.70
2017-11-04T06:47:24.391Z,36.67
2017-11-04T06:49:51.186Z,33.60
2017-11-04T06:52:17.914Z,34.90
2017-11-04T06:54:44.654Z,31.85
2017-11-04T06:57:11.408Z,31.52
2017-11-04T06:59:38.159Z,32.50
2017-11-04T07:02:04.941Z,34.70
2017-11-04T07:04:31.718Z,29.02
2017-11-04T07:06:58.443Z,30.15
2017-11-04T07:09:25.507Z,28.05
2017-11-04T07:11:52.672Z,26.12
2017-11-04T07:14:19.403Z,28.95
2017-11-04T07:16:46.885Z,25.67
2017-11-04T07:19:13.614Z,27.08
2017-11-04T07:21:40.338Z,25.62
2017-11-04T07:24:07.088Z,23.83
2017-11-04T07:26:33.815Z,26.02
2017-11-04T07:29:02.167Z,25.37
2017-11-04T07:31:28.931Z,25.60
2017-11-04T07:33:57.386Z,24.12
2017-11-04T07:36:24.111Z,25.15
2017-11-04T07:38:50.873Z,25.42
2017-11-04T07:41:18.454Z,26.65
2017-11-04T07:43:45.185Z,25.15
2017-11-04T07:46:11.923Z,26.35
2017-11-04T07:48:38.656Z,24.65
2017-11-04T07:51:05.424Z,26.90
2017-11-04T07:53:32.159Z,24.65
2017-11-04T07:55:59.317Z,24.55
2017-11-04T07:58:26.056Z,24.42
2017-11-04T08:03:23.796Z,24.33
2017-11-04T08:05:51.277Z,25.40
2017-11-04T08:08:18.023Z,25.50
2017-11-04T08:13:15.799Z,25.70
2017-11-04T08:15:42.552Z,27.23
2017-11-04T08:18:10.056Z,26.33
2017-11-04T08:20:36.788Z,24.37
2017-11-04T08:23:03.559Z,24.90
2017-11-04T08:25:30.344Z,24.87
2017-11-04T08:27:57.074Z,24.48
2017-11-04T08:30:23.831Z,21.98
2017-11-04T08:32:51.427Z,24.48
2017-11-04T08:35:18.843Z,21.90
2017-11-04T08:37:45.639Z,19.83
2017-11-04T08:40:12.352Z,20.73
2017-11-04T08:42:39.116Z,21.37
2017-11-04T08:45:05.917Z,20.37
2017-11-04T08:47:32.681Z,19.83
2017-11-04T08:49:59.424Z,21.15
2017-11-04T08:52:26.407Z,21.98
2017-11-04T08:54:53.138Z,20.17
2017-11-04T08:57:20.000Z,21.67
2017-11-04T08:59:47.035Z,23.62
2017-11-04T09:02:15.742Z,19.70
2017-11-04T09:04:42.876Z,21.65
2017-11-04T09:07:09.686Z,22.48
2017-11-04T09:09:36.432Z,20.90
2017-11-04T09:12:03.255Z,19.58
2017-11-04T09:14:29.995Z,20.35
2017-11-04T09:16:56.763Z,20.42
2017-11-04T09:19:23.619Z,19.20
2017-11-04T09:21:50.371Z,18.55
2017-11-04T09:24:17.131Z,20.23
2017-11-04T09:26:43.895Z,20.27
2017-11-04T09:29:10.689Z,20.30
2017-11-04T09:31:37.453Z,19.83
2017-11-04T09:34:04.414Z,21.00
2017-11-04T09:36:31.490Z,20.23
2017-11-04T09:38:58.207Z,19.67
2017-11-04T09:41:25.011Z,21.23
2017-11-04T09:43:51.791Z,20.55
2017-11-04T09:46:18.535Z,19.40
2017-11-04T09:48:45.584Z,20.02
2017-11-04T09:51:12.331Z,19.48
2017-11-04T09:53:39.164Z,19.62
2017-11-04T09:56:06.287Z,20.90
2017-11-04T09:58:33.023Z,18.33
2017-11-04T10:00:59.749Z,17.45
2017-11-04T10:03:26.459Z,20.33
2017-11-04T10:05:53.185Z,17.85
2017-11-04T10:08:19.912Z,18.90
2017-11-04T10:10:46.956Z,19.17
2017-11-04T10:13:13.696Z,17.77
2017-11-04T10:15:40.412Z,17.42
2017-11-04T10:18:07.130Z,17.58
2017-11-04T10:20:33.876Z,19.35
2017-11-04T10:23:00.665Z,16.52
2017-11-04T10:25:27.375Z,20.25
2017-11-04T10:27:54.108Z,18.30
2017-11-04T10:30:20.831Z,18.23
2017-11-04T10:32:47.539Z,19.12
2017-11-04T10:35:14.278Z,18.40
2017-11-04T10:37:41.012Z,21.02
2017-11-04T10:40:07.732Z,20.05
2017-11-04T10:42:40.462Z,19.42
2017-11-04T10:45:07.173Z,19.37
2017-11-04T10:47:34.215Z,18.95
2017-11-04T10:50:40.562Z,18.60
2017-11-04T10:53:07.283Z,19.30
2017-11-04T10:55:34.062Z,19.20
2017-11-04T10:58:00.802Z,18.95
2017-11-04T11:00:27.535Z,18.73
2017-11-04T11:02:54.317Z,19.67
2017-11-04T11:05:21.056Z,20.12
2017-11-04T11:07:47.795Z,18.25
2017-11-04T11:10:14.559Z,20.25
2017-11-04T11:12:41.324Z,19.23
2017-11-04T11:15:08.286Z,23.80
2017-11-04T11:17:35.128Z,20.58
2017-11-04T11:20:01.900Z,19.60
2017-11-04T11:22:28.658Z,18.65
2017-11-04T11:24:55.395Z,19.80
2017-11-04T11:27:22.167Z,19.17
2017-11-04T11:29:48.909Z,20.95
2017-11-04T11:32:15.659Z,20.08
2017-11-04T11:34:43.142Z,20.10
2017-11-04T11:37:09.897Z,18.80
2017-11-04T11:39:36.637Z,20.35
2017-11-04T11:42:03.704Z,18.87
2017-11-04T11:44:30.535Z,20.42
2017-11-04T11:46:57.595Z,18.25
2017-11-04T11:49:24.376Z,20.12
2017-11-04T11:51:51.491Z,20.08
2017-11-04T11:54:18.242Z,20.58
2017-11-04T11:56:45.027Z,19.30
2017-11-04T11:59:13.540Z,20.45
2017-11-04T12:01:40.263Z,19.42
2017-11-04T12:20:01.033Z,10.50
2017-11-04T12:25:11.132Z,17.50
2017-11-04T12:27:38.084Z,19.30
2017-11-04T12:32:45.853Z,18.25
2017-11-04T12:35:22.180Z,17.50
2017-11-04T13:16:08.941Z,21.45
2017-11-04T14:04:32.836Z,14.20
2017-11-04T14:50:20.017Z,24.20
2017-11-04T14:52:48.918Z,16.73
2017-11-04T14:55:25.099Z,16.15
2017-11-04T15:13:10.344Z,20.98
2017-11-04T15:28:17.441Z,12.05
2017-11-04T15:38:33.800Z,9.55
2017-11-04T15:54:04.343Z,11.18
2017-11-04T16:12:07.921Z,10.10
2017-11-04T16:17:15.152Z,9.60
2017-11-04T16:19:44.161Z,9.77
2017-11-04T16:24:46.343Z,9.68
2017-11-04T16:35:17.334Z,9.25
2017-11-04T16:38:06.431Z,9.20
2017-11-04T16:48:52.208Z,9.48
2017-11-04T16:53:51.231Z,8.88
2017-11-04T16:56:18.471Z,8.75
2017-11-04T17:04:05.411Z,9.45
2017-11-04T17:29:47.643Z,8.15
2017-11-04T17:32:15.419Z,8.65
2017-11-04T17:44:50.160Z,9.18
2017-11-04T17:49:50.948Z,9.10
2017-11-04T17:52:18.592Z,9.02
2017-11-04T18:08:03.497Z,8.80
2017-11-04T18:15:46.431Z,8.82
2017-11-04T18:18:15.079Z,9.35
2017-11-04T18:23:15.620Z,9.05
2017-11-04T18:28:17.221Z,10.40
2017-11-04T18:33:21.392Z,9.13
2017-11-04T18:38:24.596Z,8.60
2017-11-04T18:48:31.227Z,8.90
2017-11-04T18:56:12.767Z,8.00
2017-11-04T18:58:39.992Z,7.45
2017-11-04T19:19:11.012Z,8.68
2017-11-04T19:21:38.179Z,9.05
2017-11-04T19:24:07.894Z,8.70
2017-11-04T19:26:35.443Z,8.85
2017-11-04T19:49:34.247Z,9.20
2017-11-04T19:57:21.155Z,8.93
2017-11-04T19:59:49.547Z,8.55
2017-11-04T20:02:20.591Z,9.93
2017-11-04T20:12:30.280Z,9.88
2017-11-04T20:22:33.240Z,10.40
2017-11-04T20:30:11.072Z,9.60
2017-11-04T20:40:25.696Z,10.93
2017-11-04T21:05:59.809Z,8.45
2017-11-04T21:16:07.309Z,9.45
2017-11-04T21:49:44.786Z,8.48
2017-11-04T22:13:28.513Z,8.27
2017-11-04T22:15:57.111Z,9.45
2017-11-04T22:20:59.962Z,7.45
2017-11-04T22:28:38.800Z,9.38
2017-11-04T22:31:09.426Z,7.82
2017-11-04T22:33:38.004Z,8.63
2017-11-04T22:36:06.366Z,8.20
